Tiempo atmosférico en la estación meteorológica de La Palma Aeropuerto, Santa Cruz de Tenerife (33 m.)



Fecha
DESCASC
Temp. máxima en grados centígrados (hora)
DESCASC
Temp. mínima en grados centígrados (hora)
DESCASC
Temp. media en grados centígrados
DESCASC
Racha de viento máxima en m/sg (hora)
DESCASC
Velocidad máxima media en intervalos de 10 minutos(hora)
DESCASC
Precipitaciones diarias en mm
DESCASC
Precipitaciones de 00:00 a 06:00 en mm
DESCASC
Precipitaciones de 06:00 a 12:00 en mm
DESCASC
Precipitaciones de 12:00 a 18:00 en mm
DESCASC
Precipitaciones de 18:00 a 24:00 en mm
DESCASC
18-11-2019 20.9 (15:00) 16.5 (04:00) 18.7 10.83 (03:40) 8.33 (11:40) 3.9 1.2 0.6 2.1 0
17-11-2019 20.7 (12:50) 16.4 (09:00) 18.6 14.44 (15:10) 11.67 (15:10) -- 0.7 1.2 -- 0.8
16-11-2019 21.3 (13:10) 17.1 (04:20) 19.2 14.44 (03:30) 11.67 (03:20) 1.1 0.3 0.6 0 0.2
15-11-2019 21.4 (11:20) 17.2 (15:50) 19.3 16.39 (06:40) 13.33 (06:40) 3.4 0 0.2 3.2 0
14-11-2019 22.5 (11:10) 18.4 (00:00) 20.4 15 (22:40) 11.94 (23:40) 0.8 0 0 0.8 0
13-11-2019 22.9 (12:10) 19.4 (00:00) 21.1 13.89 (04:40) 11.11 (04:40) 0 0 0 0 0
12-11-2019 23.7 (13:30) 19.4 (00:00) 21.6 15 (10:20) 11.94 (10:20) 1.3 0 0 1.2 0.1
11-11-2019 23.8 (12:30) 19.6 (07:10) 21.7 16.39 (19:30) 13.06 (19:30) 0.1 0 0 0.1 0
10-11-2019 23.7 (12:20) 19.3 (00:00) 21.5 15.28 (04:00) 11.39 (01:20) 2.1 0.1 0 1.7 0.3
09-11-2019 23.1 (14:10) 19.2 (00:00) 21.2 17.5 (03:20) 13.33 (17:50) 0.3 0 0.1 0 0.2
08-11-2019 -- (--) -- (--) -- -- (--) -- (--) -- 0.3 -- 0.7 0
07-11-2019 22.2 (10:00) 17.9 (00:00) 20.1 17.5 (08:10) 12.78 (08:20) 10.3 0.4 2 3.7 4.2
06-11-2019 23.7 (12:20) 19.4 (00:00) 21.6 16.11 (15:50) 11.39 (16:10) 0.1 0 0 0 0.1
05-11-2019 24.7 (12:00) 19.6 (00:00) 22.2 22.22 (13:10) 16.67 (16:20) 0 0 0 0 0
04-11-2019 24.7 (12:40) 20.8 (00:00) 22.8 16.39 (20:50) 13.06 (20:50) 0 0 0 0 0
03-11-2019 24.8 (10:30) 20.5 (00:00) 22.6 10.83 (19:00) 8.33 (20:20) 0 0 0 0 0
02-11-2019 28.5 (15:00) 21.6 (00:00) 25.1 10.28 (20:50) 7.78 (20:50) 0 0 0 0 0
01-11-2019 26.3 (12:10) 21.9 (00:00) 24.1 11.67 (08:20) 8.61 (06:20) 0 0 0 0 0
31-10-2019 26.2 (13:50) 21.5 (07:00) 23.9 12.78 (19:30) 9.44 (22:40) 0 0 0 0 0
30-10-2019 26 (13:20) 20.5 (00:00) 23.3 8.33 (23:00) 6.11 (19:40) 0 0 0 0 0
29-10-2019 26.3 (09:30) 21.3 (00:00) 23.8 11.39 (11:50) 7.5 (11:10) 0 0 0 0 0
28-10-2019 28.1 (15:20) 21.3 (00:00) 24.7 9.17 (16:00) 6.67 (16:50) 0 0 0 0 0
27-10-2019 28.9 (15:50) 21.8 (00:00) 25.3 9.17 (15:40) 6.67 (17:40) 0 0 0 0 0
26-10-2019 25.8 (15:50) 19.2 (00:00) 22.5 13.33 (12:10) 9.72 (15:00) 20.5 2.6 7.9 6.4 3.6
25-10-2019 22.5 (16:50) 17 (00:00) 19.8 6.67 (10:40) 3.89 (01:00) 0 0 0 0 0
24-10-2019 23.8 (13:50) 18.4 (00:00) 21.1 9.72 (21:40) 4.72 (06:10) 0 0 0 0 0
23-10-2019 23.9 (13:30) 18.6 (00:00) 21.3 12.5 (17:10) 5.83 (21:00) 0.2 0 0 0.2 0
22-10-2019 23.9 (12:10) 18.9 (02:20) 21.4 12.5 (03:30) 10.83 (03:30) 0 0 0 0 0

Gráficas

Temp. máximas Temp. mínimas Temp. medias Precipitaciones Rachas de viento máximas Velocidades máximas media en intervalos de 10 minutos

Datos horarios

Fecha y hora oficial Temperatura (ºC) Velocidad del viento (km/h) Dirección del viento Racha (km/h) Dirección de racha Precipitación (mm) Presión (hPa) Tendencia (hPa) Humedad (%)
2019-11-20 23:00:00 19.8 2 Oeste 8 Nordeste 0 1012.7 0.6 79
2019-11-20 22:00:00 19.9 5 Noroeste 9 Norte 0 1012.6 1.1 79
2019-11-20 21:00:00 19.8 4 Sur 13 Sur 0 1012.6 1.5 79
2019-11-20 20:00:00 20 7 Sudoeste 13 Sudoeste 0 1012.1 1 77
2019-11-20 19:00:00 19.8 6 Sudoeste 18 Sur 0 1011.5 0.4 79
2019-11-20 18:00:00 20.4 10 Sur 13 Sur 0 1011.1 -0.3 77
2019-11-20 17:00:00 20.8 6 Sudeste 15 Sudoeste 0 1011.1 -0.8 73
2019-11-20 16:00:00 20.9 6 Sudeste 24 Nordeste 0 1011.1 -1.3 75
2019-11-20 15:00:00 20.8 12 Nordeste 26 Nordeste 0 1011.4 -1.7 77
2019-11-20 14:00:00 21.5 14 Norte 24 Norte 0 1011.9 -1.5 75
2019-11-20 13:00:00 21.7 6 Norte 22 Norte 0 1012.4 -0.8 71
2019-11-20 12:00:00 22.1 14 Norte 22 Norte 0 1013.1 0.2 71
2019-11-20 11:00:00 21 4 Nordeste 8 Este 0 1013.4 0.8 69
2019-11-20 10:00:00 21.2 5 Este 9 Sudeste 0 1013.2 0.8 68
2019-11-20 09:00:00 20.3 4 Sur 13 Sudoeste 0 1012.9 0.5 68
2019-11-20 08:00:00 16.9 12 Sudoeste 15 Sudoeste 0 1012.6 0.1 73
2019-11-20 07:00:00 16.5 9 Oeste 17 Sudoeste 0 1012.4 -0.3 73
2019-11-20 06:00:00 16.8 13 Sudoeste 21 Sudoeste 0 1012.4 -0.5 72
2019-11-20 05:00:00 17.4 9 Oeste 21 Sur 0 1012.5 -0.6 73
2019-11-20 04:00:00 17.2 13 Sudoeste 17 Sudoeste 0 1012.7 -1.1 73
2019-11-20 03:00:00 17.2 12 Sudoeste 15 Oeste 0 1012.9 -1.2 73
2019-11-20 02:00:00 17.1 12 Sudoeste 15 Oeste 0 1013.1 -1.1 76
2019-11-20 01:00:00 17.6 13 Sudoeste 17 Sudoeste 0 1013.8 -0.6 75
2019-11-20 00:00:00 17.2 10 Sudoeste 13 Sudoeste 0 1014.1 -0.2 75
2019-11-19 23:00:00 17.5 6 Oeste 11 Oeste 0 1014.2 0.2 75
2019-11-19 22:00:00 17.6 7 Oeste 13 Oeste 0 1014.4 0.8 74
2019-11-19 21:00:00 18.3 8 Oeste 15 Oeste 0 1014.3 0.9 72
2019-11-19 20:00:00 18.9 12 Oeste 17 Oeste 0 1014 0.5 70
2019-11-19 19:00:00 19.2 11 Oeste 17 Sur 0 1013.6 0 70
2019-11-19 18:00:00 20.1 12 Sur 30 Sudoeste 0 1013.4 -0.3 69
2019-11-19 17:00:00 21.1 15 Sudoeste 22 Sur 0 1013.5 -1.1 65
2019-11-19 16:00:00 21.4 9 Este 33 Nordeste 0 1013.6 -1.5 65
2019-11-19 15:00:00 21.2 25 Nordeste 37 Nordeste 0 1013.7 -2.3 70
2019-11-19 14:00:00 21.6 17 Nordeste 26 Nordeste 0 1014.6 -1.9 65
2019-11-19 13:00:00 22.3 8 Sudeste 28 Nordeste 0 1015.1 -1.6 60
2019-11-19 12:00:00 21.9 15 Nordeste 28 Nordeste 0 1016 -0.2 61
2019-11-19 11:00:00 21.9 4 Este 28 Nordeste 0 1016.5 0.6 58
2019-11-19 10:00:00 20.8 7 Nordeste 17 Norte 0 1016.7 0.9 64
2019-11-19 09:00:00 19.6 4 Sur 17 Sudoeste 0 1016.2 0.8 66
2019-11-19 08:00:00 16.7 12 Sudoeste 18 Oeste 0 1015.9 0.5 71
2019-11-19 07:00:00 16.2 11 Oeste 13 Sudoeste 0 1015.8 0.2 72
2019-11-19 06:00:00 17 9 Oeste 15 Oeste 0 1015.4 -0.5 70
2019-11-19 05:00:00 16.8 7 Oeste 11 Oeste 0 1015.4 -0.8 75
2019-11-19 04:00:00 17.5 8 Oeste 11 Oeste 0 1015.6 -1.1 68
2019-11-19 03:00:00 16.5 8 Oeste 13 Oeste 0 1015.9 -1.5 73
2019-11-19 02:00:00 16.8 7 Oeste 13 Oeste 0 1016.2 -1.3 74
2019-11-19 01:00:00 18.3 8 Noroeste 17 Norte 0 1016.7 -0.7 72
2019-11-19 00:00:00 18.7 10 Noroeste 22 Norte 0 1017.4 0.2 71
2019-11-18 23:00:00 18.3 11 Oeste 18 Oeste 0 1017.5 0.6 71
2019-11-18 22:00:00 18 12 Oeste 22 Oeste 0 1017.4 0.8 71
2019-11-18 21:00:00 18.3 13 Oeste 21 Noroeste 0 1017.2 0.7 70
2019-11-18 20:00:00 18.9 13 Noroeste 22 Noroeste 0 1016.9 0.4 71
2019-11-18 19:00:00 19.4 19 Noroeste 30 Norte 0 1016.6 0.3 69
2019-11-18 18:00:00 20 24 Norte 32 Norte 0 1016.5 0.2 72
2019-11-18 17:00:00 20.1 23 Norte 32 Norte 0 1016.5 -0.2 70
2019-11-18 16:00:00 20.4 22 Norte 28 Norte 0 1016.3 -0.8 72
2019-11-18 15:00:00 20.6 16 Norte 24 Norte 0 1016.3 -2 79
2019-11-18 14:00:00 18.4 15 Noroeste 33 Nordeste 2.1 1016.7 -1.8 86
2019-11-18 13:00:00 20.1 18 Noroeste 30 Norte 0 1017.1 -1.1 76
2019-11-18 12:00:00 18.3 21 Nordeste 37 Nordeste 0 1018.3 0.4 84
2019-11-18 11:00:00 20.5 20 Norte 33 Norte 0.4 1018.5 0.9 81
2019-11-18 10:00:00 19.8 19 Norte 28 Norte 0 1018.2 1.3 77
2019-11-18 09:00:00 18.1 17 Oeste 30 Norte 0 1017.9 1.3 80
2019-11-18 08:00:00 18.1 16 Norte 30 Nordeste 0.2 1017.6 0.6 71
2019-11-18 07:00:00 17.9 15 Noroeste 28 Noroeste 0 1016.9 -0.2 72
2019-11-18 06:00:00 17.4 21 Oeste 32 Oeste 0 1016.6 -0.3 75
2019-11-18 05:00:00 16.9 19 Noroeste 35 Noroeste 0.3 1017 -0.2 85
2019-11-18 04:00:00 17.1 24 Norte 39 Nordeste 0.2 1017.1 -0.3 82
2019-11-18 03:00:00 17.4 16 Noroeste 24 Noroeste 0 1016.9 -0.8 71
2019-11-18 02:00:00 17.8 16 Noroeste 28 Oeste 0 1017.2 -0.6 73
2019-11-18 01:00:00 17.2 21 Oeste 37 Nordeste 0.7 1017.4 -0.3 81
2019-11-18 00:00:00 19.2 26 Norte 37 Norte 0 1017.7 0.1 76
2019-11-17 23:00:00 18.6 22 Noroeste 45 Nordeste 0 1017.8 0.5 77
2019-11-17 22:00:00 18.6 25 Norte 50 Nordeste 0 1017.7 0.8 76
2019-11-17 21:00:00 17.9 37 Norte 45 Nordeste 0.5 1017.6 1 84
2019-11-17 20:00:00 17.9 18 Noroeste 45 Nordeste 0.3 1017.3 1 83
2019-11-17 19:00:00 18.5 36 Norte 42 Norte 0 1016.9 0.8 75
2019-11-17 18:00:00 19 18 Noroeste 33 Noroeste -- 1016.6 0.2 71
2019-11-17 17:00:00 18 27 Noroeste 42 Norte 0 1016.3 -0.6 82
2019-11-17 16:00:00 19.2 18 Noroeste 52 Nordeste 0 1016.1 -1.4 68
2019-11-17 15:00:00 20 21 Norte 35 Nordeste 0 1016.4 -1.9 72
2019-11-17 14:00:00 19.4 31 Nordeste 46 Nordeste 0 1016.9 -1.8 76
2019-11-17 13:00:00 20 24 Norte 39 Norte 0 1017.5 -1.1 70
2019-11-17 12:00:00 19.3 18 Norte 37 Noroeste 0 1018.3 0 79
2019-11-17 11:00:00 19.9 16 Norte 37 Norte 0 1018.7 1.3 70
2019-11-17 10:00:00 18.8 23 Norte 41 Norte 0.1 1018.6 1.4 78
2019-11-17 09:00:00 16.4 22 Oeste 39 Norte 1.1 1018.3 1.5 88
2019-11-17 08:00:00 17.1 18 Oeste 37 Norte 0 1017.4 0.9 77
2019-11-17 07:00:00 17.3 15 Noroeste 30 Noroeste 0 1017.2 0.8 76
2019-11-17 06:00:00 18.2 27 Norte 42 Norte 0.3 1016.8 0 79
2019-11-17 05:00:00 18.3 24 Norte 41 Norte 0.3 1016.5 -0.4 77
2019-11-17 04:00:00 18.4 22 Norte 42 Noroeste 0.1 1016.4 -0.6 71
2019-11-17 03:00:00 19.1 21 Noroeste 28 Noroeste 0 1016.8 -0.4 61
2019-11-17 02:00:00 18.8 18 Noroeste 33 Noroeste 0 1016.9 -0.2 64
2019-11-17 01:00:00 18.7 19 Noroeste 37 Noroeste 0 1017 -0.1 65
2019-11-17 00:00:00 18.9 17 Noroeste 32 Noroeste 0.1 1017.2 0.5 67
2019-11-16 23:00:00 19.1 19 Noroeste 35 Norte 0 1017.1 0.8 61
2019-11-16 22:00:00 19.5 27 Norte 42 Norte 0 1017.1 1.1 64
2019-11-16 21:00:00 18.7 21 Noroeste 37 Noroeste 0 1016.7 1.2 75
2019-11-16 20:00:00 17.6 26 Noroeste 48 Norte 0.1 1016.3 1 81
2019-11-16 19:00:00 19.1 23 Noroeste 37 Norte 0 1016 0.7 74
2019-11-16 18:00:00 19.2 26 Norte 45 Norte 0 1015.5 0 71
2019-11-16 17:00:00 20.3 27 Norte 42 Norte 0 1015.3 -0.5 63
2019-11-16 16:00:00 20.5 26 Norte 42 Noroeste 0 1015.3 -1.1 64
2019-11-16 15:00:00 20.5 28 Norte 39 Norte 0 1015.5 -1.5 68
2019-11-16 14:00:00 21 31 Norte 41 Norte 0 1015.8 -1.4 66
2019-11-16 13:00:00 20.9 31 Norte 48 Norte 0 1016.4 -0.8 66
2019-11-16 12:00:00 19.7 28 Norte 52 Norte 0 1017 0.3 73
2019-11-16 11:00:00 19.9 23 Noroeste 45 Norte 0 1017.2 1.3 69
2019-11-16 10:00:00 19.4 21 Norte 39 Norte 0.6 1017.2 1.9 74
2019-11-16 09:00:00 18.8 25 Noroeste 37 Norte 0 1016.7 1.7 67
2019-11-16 08:00:00 18.8 25 Noroeste 48 Norte 0 1015.9 0.9 63
2019-11-16 07:00:00 19.2 36 Norte 48 Norte 0 1015.3 0.5 68
2019-11-16 06:00:00 18.8 30 Norte 46 Norte 0 1015 0.2 71
2019-11-16 05:00:00 18.2 22 Noroeste 46 Norte 0.2 1015 0.1 76
2019-11-16 04:00:00 17.9 23 Noroeste 52 Norte 0.1 1014.8 -0.4 73
2019-11-16 03:00:00 18.1 23 Noroeste 46 Nordeste 0 1014.8 -0.3 74
2019-11-16 02:00:00 19.2 32 Norte 48 Norte 0 1014.9 -0.2 70
2019-11-16 01:00:00 17.9 18 Noroeste 42 Norte 0 1015.2 0.4 75
2019-11-16 00:00:00 18.9 26 Norte 41 Norte 0 1015.1 0.7 70
2019-11-15 23:00:00 18.4 27 Noroeste 46 Norte 0 1015.1 1.2 68
2019-11-15 22:00:00 18.6 26 Noroeste 37 Noroeste 0 1014.8 1.5 67
2019-11-15 21:00:00 18.5 23 Noroeste 48 Norte 0 1014.4 1.3 66
2019-11-15 20:00:00 18.6 29 Norte 58 Norte 0 1013.9 0.7 69
2019-11-15 19:00:00 19.5 42 Norte 52 Nordeste 0 1013.3 0.1 69
2019-11-15 18:00:00 18.6 39 Norte 58 Norte 0.1 1013.1 -0.1 78
2019-11-15 17:00:00 19.1 38 Norte 52 Norte 0 1013.2 -0.3 75
2019-11-15 16:00:00 17.3 21 Noroeste 52 Norte 1.6 1013.2 -1 86
2019-11-15 15:00:00 19.3 32 Nordeste 54 Norte 1.2 1013.2 -1.8 78
2019-11-15 14:00:00 19.6 22 Norte 48 Noroeste 0.1 1013.5 -1.7 75
2019-11-15 13:00:00 19.5 28 Norte 41 Norte 0.2 1014.2 -0.7 80
2019-11-15 12:00:00 20.2 36 Nordeste 50 Nordeste 0 1015 0.6 73
2019-11-15 11:00:00 20.6 30 Norte 48 Norte 0 1015.2 1.2 71
2019-11-15 10:00:00 20.2 40 Norte 52 Norte 0 1014.9 1.4 79
2019-11-15 09:00:00 19.7 31 Norte 45 Norte 0 1014.4 1.4 74
2019-11-15 08:00:00 18.4 25 Noroeste 41 Norte 0.2 1014 0.8 81
2019-11-15 07:00:00 19 33 Norte 59 Norte 0 1013.5 0.1 76
2019-11-15 06:00:00 20.3 22 Norte 35 Noroeste 0 1013 -0.9 66
2019-11-15 05:00:00 20.1 22 Norte 39 Norte 0 1013.2 -0.9 68
2019-11-15 04:00:00 19.9 26 Norte 39 Norte 0 1013.4 -1 70
2019-11-15 03:00:00 20 21 Noroeste 54 Norte 0 1013.9 -0.7 63
2019-11-15 02:00:00 19.9 24 Norte 52 Norte 0 1014.1 -0.4 70
2019-11-15 01:00:00 20.5 45 Norte 52 Norte 0 1014.4 -0.1 73
2019-11-15 00:00:00 20.5 40 Norte 54 Norte 0 1014.6 0.7 75
2019-11-14 23:00:00 20.8 40 Norte 54 Norte 0 1014.5 0.9 77
2019-11-14 22:00:00 20.6 40 Norte 48 Norte 0 1014.5 1.3 76
2019-11-14 21:00:00 20.7 37 Nordeste 50 Nordeste 0 1013.9 0.9 78
2019-11-14 20:00:00 20.6 28 Norte 48 Nordeste 0 1013.6 0.7 75
2019-11-14 19:00:00 20.7 40 Nordeste 52 Nordeste 0 1013.2 -0.1 77
2019-11-14 18:00:00 20 24 Noroeste 46 Noroeste 0 1013 -0.1 73
2019-11-14 17:00:00 18.6 29 Noroeste 52 Noroeste 0.5 1012.9 -0.3 81
2019-11-14 16:00:00 19.2 29 Norte 41 Norte 0.3 1013.3 -0.5 85
2019-11-14 15:00:00 20.4 26 Norte 48 Norte 0 1013.1 -1.5 80
2019-11-14 14:00:00 21.5 28 Norte 42 Norte 0 1013.2 -1.5 73
2019-11-14 13:00:00 22 28 Norte 37 Norte 0 1013.8 -0.6 70
2019-11-14 12:00:00 21.5 24 Norte 41 Nordeste 0 1014.6 0.4 74
2019-11-14 11:00:00 21.9 26 Norte 39 Norte 0 1014.7 1.2 68
2019-11-14 10:00:00 20.7 22 Norte 35 Norte 0 1014.4 1.3 67
2019-11-14 09:00:00 20.1 26 Noroeste 42 Norte 0 1014.2 1.7 76
2019-11-14 08:00:00 19.8 19 Noroeste 42 Norte 0 1013.5 0.9 73
2019-11-14 07:00:00 20.9 20 Norte 46 Norte 0 1013.1 0.7 68
2019-11-14 06:00:00 20.7 22 Norte 39 Norte 0 1012.5 -0.9 69
2019-11-14 05:00:00 20.8 24 Noroeste 35 Norte 0 1012.6 -0.8 60
2019-11-14 04:00:00 20.8 21 Noroeste 35 Norte 0 1012.4 -1.4 62
2019-11-14 03:00:00 20.9 22 Norte 33 Norte 0 1013.4 -1.3 67
2019-11-14 02:00:00 20.8 23 Noroeste 33 Noroeste 0 1013.4 -1.4 60
2019-11-14 01:00:00 20.8 23 Noroeste 30 Noroeste 0 1013.8 -1 61
2019-11-14 00:00:00 20.6 19 Norte 39 Norte 0 1014.7 0.1 67
2019-11-13 23:00:00 20.9 22 Norte 33 Norte 0 1014.8 0.5 66
2019-11-13 22:00:00 20.8 21 Noroeste 37 Norte 0 1014.8 0.9 64
2019-11-13 21:00:00 20.9 30 Norte 39 Norte 0 1014.6 0.7 68
2019-11-13 20:00:00 20.7 23 Noroeste 39 Norte 0 1014.3 0 61
2019-11-13 19:00:00 21 31 Norte 42 Norte 0 1013.9 -0.3 70
2019-11-13 18:00:00 21 29 Norte 45 Norte 0 1013.9 -0.3 70
2019-11-13 17:00:00 21.3 33 Norte 41 Norte 0 1014.3 -0.4 73
2019-11-13 16:00:00 21.7 33 Norte 41 Norte 0 1014.2 -1 73
2019-11-13 15:00:00 22.2 30 Norte 39 Norte 0 1014.2 -1.9 70
2019-11-13 14:00:00 22.4 27 Norte 41 Norte 0 1014.7 -2.1 71
2019-11-13 13:00:00 22.6 25 Norte 35 Norte 0 1015.2 -1.7 63
2019-11-13 12:00:00 22.6 25 Norte 39 Norte 0 1016.1 -0.2 64
2019-11-13 11:00:00 21.9 26 Norte 37 Norte 0 1016.8 1.1 69
2019-11-13 10:00:00 21.3 26 Norte 37 Norte 0 1016.9 2 72
2019-11-13 09:00:00 20.8 25 Norte 39 Norte 0 1016.3 2.1 74
2019-11-13 08:00:00 20.3 22 Norte 37 Norte 0 1015.7 1.8 74
2019-11-13 07:00:00 20.3 24 Norte 42 Norte 0 1014.9 0.9 74
2019-11-13 06:00:00 20.3 33 Norte 45 Norte 0 1014.2 0.2 77
2019-11-13 05:00:00 20.4 35 Norte 50 Nordeste 0 1013.9 -0.4 77
2019-11-13 04:00:00 19.8 17 Noroeste 32 Noroeste 0 1014 -0.7 70
2019-11-13 03:00:00 20.1 19 Noroeste 39 Noroeste 0 1014 -1.2 66
2019-11-13 02:00:00 20 16 Noroeste 30 Noroeste 0 1014.3 -1 62
2019-11-13 01:00:00 19.8 18 Noroeste 32 Norte 0 1014.7 -0.3 68
2019-11-13 00:00:00 20.3 30 Norte 41 Norte 0 1015.2 0.2 75
2019-11-12 23:00:00 20.4 31 Norte 39 Norte 0 1015.3 0.4 73
2019-11-12 22:00:00 20.4 25 Norte 42 Norte 0 1015 0.3 73
2019-11-12 21:00:00 20.7 33 Norte 45 Norte 0 1015 0.5 78
2019-11-12 20:00:00 20.8 36 Norte 42 Norte 0 1014.9 0.2 82
2019-11-12 19:00:00 20 32 Norte 46 Norte 0.1 1014.7 -0.1 88
2019-11-12 18:00:00 20.2 23 Norte 50 Norte 1 1014.5 -0.2 89
2019-11-12 17:00:00 21.4 26 Norte 52 Norte 0.2 1014.7 -0.7 78
2019-11-12 16:00:00 22.4 30 Norte 52 Norte 0 1014.8 -1.4 72
2019-11-12 15:00:00 22.6 26 Norte 45 Norte 0 1014.7 -2.4 71
2019-11-12 14:00:00 23 30 Norte 42 Norte 0 1015.4 -2 63
2019-11-12 13:00:00 23.1 31 Norte 42 Norte 0 1016.2 -1 64
2019-11-12 12:00:00 22.9 32 Norte 48 Norte 0 1017.1 0.2 66
2019-11-12 11:00:00 22.7 36 Norte 54 Norte 0 1017.4 0.7 63
2019-11-12 10:00:00 21.5 29 Noroeste 46 Norte 0 1017.2 0.7 67
2019-11-12 09:00:00 20.6 30 Norte 46 Norte 0 1016.9 0.8 74
2019-11-12 08:00:00 20.7 21 Noroeste 37 Noroeste 0 1016.7 0.7 67
2019-11-12 07:00:00 20.7 24 Norte 35 Norte 0 1016.5 0.1 69
2019-11-12 06:00:00 20.6 28 Norte 45 Norte 0 1016.1 -0.9 71
2019-11-12 05:00:00 20.4 25 Norte 45 Norte 0 1016 -1.2 73
2019-11-12 04:00:00 20.9 32 Norte 42 Norte 0 1016.4 -1.5 74
2019-11-12 03:00:00 20.5 26 Norte 42 Norte 0 1017 -1.1 74
2019-11-12 02:00:00 20.8 26 Norte 42 Norte 0 1017.2 -1.3 70
2019-11-12 01:00:00 21 34 Norte 42 Norte 0 1017.9 -0.9 72
2019-11-12 00:00:00 21 30 Norte 39 Norte 0 1018.1 -0.7 73
2019-11-11 23:00:00 20.7 24 Norte 42 Norte 0 1018.5 -0.1 72
2019-11-11 22:00:00 20.5 24 Norte 42 Norte 0 1018.8 0.5 75
2019-11-11 21:00:00 20.3 35 Norte 46 Norte 0 1018.8 0.7 78
2019-11-11 20:00:00 20.3 32 Norte 59 Nordeste 0 1018.6 0.6 79
2019-11-11 19:00:00 20.1 30 Norte 52 Norte 0 1018.3 -0.1 78
2019-11-11 18:00:00 20.7 27 Norte 46 Norte 0 1018.1 -0.7 72
2019-11-11 17:00:00 20.8 32 Norte 46 Norte 0.1 1018 -1.2 75
2019-11-11 16:00:00 21.9 27 Norte 45 Norte 0 1018.4 -1.1 64
2019-11-11 15:00:00 21.4 24 Norte 45 Norte 0 1018.8 -1.9 70
2019-11-11 14:00:00 22.3 32 Norte 46 Norte 0 1019.2 -2.1 70
2019-11-11 13:00:00 23 32 Norte 42 Norte 0 1019.5 -2.1 67
2019-11-11 12:00:00 23 22 Norte 37 Norte 0 1020.7 -0.4 62
2019-11-11 11:00:00 22.5 22 Norte 39 Norte 0 1021.3 0.9 62
2019-11-11 10:00:00 21.1 25 Norte 48 Nordeste 0 1021.6 1.5 66
2019-11-11 09:00:00 20.9 28 Norte 41 Norte 0 1021.1 1.4 64
2019-11-11 08:00:00 19.9 26 Noroeste 37 Noroeste 0 1020.4 0.5 62
2019-11-11 07:00:00 19.9 21 Norte 45 Norte 0 1020.1 -0.4 65
2019-11-11 06:00:00 20 28 Noroeste 48 Norte 0 1019.7 -1 64
2019-11-11 05:00:00 20.2 27 Norte 41 Norte 0 1019.9 -1.1 70
2019-11-11 04:00:00 20.4 22 Norte 45 Norte 0 1020.5 -0.6 72
2019-11-11 03:00:00 20.5 23 Noroeste 39 Norte 0 1020.7 -0.8 72
2019-11-11 02:00:00 20.7 23 Norte 42 Norte 0 1021 -0.7 64
2019-11-11 01:00:00 20.7 34 Norte 46 Nordeste 0 1021.1 -0.6 74
2019-11-11 00:00:00 20.7 23 Norte 37 Norte 0 1021.5 0.2 73
2019-11-10 23:00:00 20.2 23 Noroeste 45 Nordeste 0 1021.7 0.9 72
2019-11-10 22:00:00 20.9 34 Norte 45 Nordeste 0 1021.7 1.6 78
2019-11-10 21:00:00 21.1 36 Norte 46 Nordeste 0 1021.3 1.2 80
2019-11-10 20:00:00 20.7 33 Norte 46 Norte 0.3 1020.8 0.7 85
2019-11-10 19:00:00 21 32 Norte 42 Norte 0 1020.1 0.1 84
2019-11-10 18:00:00 21 26 Norte 37 Norte 1.7 1020.1 0.5 84
2019-11-10 17:00:00 21.8 28 Norte 35 Norte 0 1020.1 0 77
2019-11-10 16:00:00 22.9 21 Norte 42 Norte 0 1020 -1 66
2019-11-10 15:00:00 23.2 22 Norte 35 Norte 0 1019.6 -1.9 66
2019-11-10 14:00:00 22.9 28 Norte 42 Norte 0 1020.1 -1.9 69
2019-11-10 13:00:00 21.8 28 Norte 48 Norte 0 1021 -0.7 75
2019-11-10 12:00:00 23.1 30 Norte 46 Norte 0 1021.5 0.2 60
2019-11-10 11:00:00 22 37 Norte 48 Norte 0 1022 1.3 65
2019-11-10 10:00:00 21.9 27 Norte 45 Norte 0 1021.7 1.9 61
2019-11-10 09:00:00 20.8 26 Norte 46 Noroeste 0 1021.3 1.8 64
2019-11-10 08:00:00 20.7 36 Norte 50 Norte 0 1020.7 1.3 68
2019-11-10 07:00:00 20.1 37 Nordeste 54 Nordeste 0 1019.8 0 78
2019-11-10 06:00:00 20.3 26 Norte 42 Norte 0 1019.5 -0.4 72
2019-11-10 05:00:00 20.6 34 Norte 48 Nordeste 0 1019.4 -0.8 71
2019-11-10 04:00:00 19.9 29 Norte 55 Nordeste 0.1 1019.8 -0.8 81
2019-11-10 03:00:00 20.7 39 Nordeste 50 Nordeste 0 1019.9 -1.1 74
2019-11-10 02:00:00 19.9 23 Norte 54 Nordeste 0 1020.2 -0.6 73
2019-11-10 01:00:00 20.7 33 Norte 52 Norte 0 1020.6 -0.1 69
2019-11-10 00:00:00 20.6 30 Norte 50 Nordeste 0.2 1021 0.5 76
2019-11-09 23:00:00 21 22 Noroeste 42 Noroeste 0 1020.8 0.8 57
2019-11-09 22:00:00 20.7 27 Noroeste 46 Norte 0 1020.7 0.9 57
2019-11-09 21:00:00 20.9 35 Norte 55 Norte 0 1020.5 1.3 65
2019-11-09 20:00:00 20.9 45 Norte 58 Nordeste 0 1020 1.2 70
2019-11-09 19:00:00 20.9 35 Norte 54 Norte 0 1019.8 1.2 71
2019-11-09 18:00:00 20.6 39 Nordeste 61 Norte 0 1019.2 0.7 72
2019-11-09 17:00:00 21.3 44 Norte 55 Norte 0 1018.8 -0.2 68
2019-11-09 16:00:00 21.7 36 Norte 52 Norte 0 1018.6 -1 73
2019-11-09 15:00:00 22.2 38 Norte 48 Norte 0 1018.5 -1.8 65
2019-11-09 14:00:00 22.7 30 Norte 52 Nordeste 0 1019 -1.5 59
2019-11-09 13:00:00 21.9 37 Norte 54 Norte 0 1019.6 -0.4 65
2019-11-09 12:00:00 21 45 Norte 54 Norte 0 1020.3 1 73
2019-11-09 11:00:00 20.5 23 Norte 46 Nordeste 0.1 1020.5 1.9 72
2019-11-09 10:00:00 21 39 Norte 54 Nordeste 0 1020 1.7 73
2019-11-09 09:00:00 20.8 24 Noroeste 45 Nordeste 0 1019.3 1.5 68
2019-11-09 08:00:00 21 26 Norte 37 Norte 0 1018.6 0.9 66
2019-11-09 07:00:00 20.8 24 Noroeste 37 Noroeste 0 1018.3 0.7 58
2019-11-09 06:00:00 20.5 24 Noroeste 35 Noroeste 0 1017.8 0.3 57
2019-11-09 05:00:00 20.5 19 Noroeste 46 Nordeste 0 1017.7 0 53
2019-11-09 04:00:00 20.7 32 Norte 63 Nordeste 0 1017.6 -0.6 63
2019-11-09 03:00:00 20.9 36 Norte 50 Nordeste 0 1017.5 -0.8 70
2019-11-09 02:00:00 21.2 36 Norte 50 Norte 0 1017.7 -1.1 66
2019-11-09 01:00:00 20.2 20 Norte 35 Nordeste 0 1018.2 -0.3 73
2019-11-09 00:00:00 20.8 22 Noroeste 41 Norte 0 1018.3 0.5 52
2019-11-08 23:00:00 20.4 17 Norte 37 Norte 0 1018.8 1.6 61
2019-11-08 22:00:00 20.3 28 Noroeste 42 Norte 0 1018.5 1.6 57
2019-11-08 21:00:00 20.8 35 Norte 55 Nordeste 0 1017.8 1.4 68
2019-11-08 20:00:00 21.1 43 Nordeste 54 Nordeste 0 1017.2 0.9 73
2019-11-08 19:00:00 21.2 37 Norte 48 Nordeste 0 1016.9 1.2 73
2019-11-08 18:00:00 21.2 33 Norte 46 Norte 0 1016.4 1 75
2019-11-08 17:00:00 21.4 33 Norte 46 Norte 0 1016.3 0.3 75
2019-11-08 16:00:00 21.5 39 Norte 52 Norte 0 1015.7 -0.9 73
2019-11-08 15:00:00 21.6 35 Nordeste 45 Nordeste 0.1 1015.4 -1.4 80
2019-11-08 14:00:00 20.4 23 Nordeste 45 Norte 0.1 1016 -- 87
2019-11-08 13:00:00 19.3 20 Noroeste 45 Nordeste 0.5 1016.6 -- 95
2019-11-08 12:00:00 20.4 36 Norte -- -- -- 1016.8 -- 93
2019-11-08 11:00:00 -- -- -- -- -- -- -- -- --
2019-11-08 10:00:00 -- -- -- -- -- -- -- -- --
2019-11-08 09:00:00 -- -- -- -- -- -- -- -- --
2019-11-08 08:00:00 20.8 18 Noroeste 26 Noroeste 0 1015.2 1.1 76
2019-11-08 07:00:00 20.7 21 Noroeste 30 Noroeste 0 1014.7 0.7 73
2019-11-08 06:00:00 20.8 19 Noroeste 30 Norte 0 1014.3 -0.1 73
2019-11-08 05:00:00 20.6 24 Noroeste 39 Norte 0 1014.1 -0.4 75
2019-11-08 04:00:00 20.6 23 Noroeste 41 Noroeste 0 1014 -0.6 67
2019-11-08 03:00:00 20.4 24 Norte 39 Norte 0 1014.4 -0.3 74
2019-11-08 02:00:00 20.2 29 Norte 54 Norte 0.2 1014.5 -0.1 80
2019-11-08 01:00:00 20.9 35 Norte 46 Norte 0.1 1014.6 0 79
2019-11-08 00:00:00 20.3 31 Norte 50 Nordeste 0.5 1014.7 0.4 87
2019-11-07 23:00:00 20 23 Nordeste 50 Nordeste 3.6 1014.6 1.1 87
2019-11-07 22:00:00 20.4 23 Norte 48 Nordeste 0.1 1014.6 1.6 80
2019-11-07 21:00:00 20.5 25 Norte 42 Norte 0 1014.3 1.9 79
2019-11-07 20:00:00 20.4 27 Norte 48 Norte 0 1013.5 0.9 81
2019-11-07 19:00:00 20.1 25 Norte 50 Nordeste 0 1013 0.5 87
2019-11-07 18:00:00 19.6 18 Noroeste 30 Norte 1.3 1012.4 -0.3 89
2019-11-07 17:00:00 19.5 24 Norte 41 Norte 0.6 1012.6 -0.5 93
2019-11-07 16:00:00 19.5 22 Nordeste 33 Nordeste 0.5 1012.5 -1.6 93
2019-11-07 15:00:00 18.9 22 Nordeste 46 Nordeste 0.9 1012.7 -2 96
2019-11-07 14:00:00 20.2 24 Norte 42 Nordeste 0.3 1013.1 -2.1 86
2019-11-07 13:00:00 20.3 16 Norte 46 Norte 0.1 1014.1 -0.6 84
2019-11-07 12:00:00 19.9 20 Noroeste 54 Nordeste 1.1 1014.7 0.2 81
2019-11-07 11:00:00 21.1 39 Norte 48 Nordeste 0 1015.2 1.3 79
2019-11-07 10:00:00 22 26 Norte 42 Norte 0 1014.7 1.3 71
2019-11-07 09:00:00 19.4 27 Noroeste 63 Nordeste 0.1 1014.5 1.1 73
2019-11-07 08:00:00 20.1 23 Norte 39 Norte 0.4 1013.9 0.8 78
2019-11-07 07:00:00 18.6 15 Noroeste 42 Norte 0.4 1013.4 -0.1 82
2019-11-07 06:00:00 19.8 39 Norte 52 Nordeste 0.4 1013.4 -0.3 77
2019-11-07 05:00:00 20.1 41 Nordeste 50 Nordeste 0 1013.1 -1 79
2019-11-07 04:00:00 20.1 24 Norte 33 Norte 0 1013.5 -1.5 67
2019-11-07 03:00:00 19.6 23 Noroeste 35 Norte 0 1013.7 -1.2 71
2019-11-07 02:00:00 19.9 22 Noroeste 32 Norte 0 1014.1 -1.2 67
2019-11-07 01:00:00 18.6 30 Nordeste 55 Nordeste 0 1015 -0.6 87
2019-11-07 00:00:00 21.1 31 Nordeste 39 Nordeste 0 1014.9 -0.6 69
2019-11-06 23:00:00 20.5 23 Noroeste 32 Noroeste 0 1015.3 -0.2 67
2019-11-06 22:00:00 20.6 21 Noroeste 35 Norte 0 1015.6 0.5 65
2019-11-06 21:00:00 20.4 25 Noroeste 35 Norte 0 1015.5 0.6 67
2019-11-06 20:00:00 20.1 36 Norte 52 Norte 0.1 1015.5 0.7 75
2019-11-06 19:00:00 21 26 Norte 41 Norte 0 1015.1 0 67
2019-11-06 18:00:00 21.3 34 Norte 45 Norte 0 1014.9 -0.8 65
2019-11-06 17:00:00 20.8 26 Noroeste 52 Norte 0 1014.8 -1.3 69
2019-11-06 16:00:00 21.1 37 Norte 58 Norte 0 1015.1 -1.8 75
2019-11-06 15:00:00 22.3 33 Norte 42 Norte 0 1015.7 -1.9 65
2019-11-06 14:00:00 22.6 32 Nordeste 41 Norte 0 1016.1 -2 66
2019-11-06 13:00:00 22.9 32 Norte 41 Norte 0 1016.9 -1.3 60
2019-11-06 12:00:00 23.2 29 Norte 42 Nordeste 0 1017.6 -0.4 59
2019-11-06 11:00:00 23.1 28 Norte 37 Norte 0 1018.1 0.5 55
2019-11-06 10:00:00 22.2 23 Norte 39 Nordeste 0 1018.2 0.8 61
2019-11-06 09:00:00 20.6 38 Nordeste 48 Nordeste 0 1018 0.7 70
2019-11-06 08:00:00 20.8 22 Noroeste 35 Noroeste 0 1017.6 0.4 55
2019-11-06 07:00:00 20.1 22 Noroeste 45 Norte 0 1017.4 0 60
2019-11-06 06:00:00 20.3 19 Noroeste 30 Noroeste 0 1017.3 -0.4 58
2019-11-06 05:00:00 20.4 25 Noroeste 37 Norte 0 1017.2 -0.6 63
2019-11-06 04:00:00 20.6 22 Noroeste 41 Norte 0 1017.4 -0.7 68
2019-11-06 03:00:00 21 22 Norte 46 Norte 0 1017.7 -1 65
2019-11-06 02:00:00 21 20 Noroeste 46 Nordeste 0 1017.8 -1.1 66
2019-11-06 01:00:00 21.4 34 Norte 46 Nordeste 0 1018.1 -0.7 73
2019-11-06 00:00:00 20.4 17 Norte 41 Norte 0 1018.7 0.2 79
2019-11-05 23:00:00 21.5 30 Nordeste 42 Nordeste 0 1018.9 0.8 81
2019-11-05 22:00:00 21.4 34 Nordeste 46 Nordeste 0 1018.8 1.4 82
2019-11-05 21:00:00 20.9 37 Nordeste 52 Norte 0 1018.5 1.5 87
2019-11-05 20:00:00 21.3 31 Norte 46 Norte 0 1018.1 1.7 85
2019-11-05 19:00:00 22.1 39 Norte 55 Nordeste 0 1017.4 1.1 80
2019-11-05 18:00:00 22.3 47 Nordeste 71 Nordeste 0 1017 0.1 79
2019-11-05 17:00:00 22.4 57 Nordeste 76 Nordeste 0 1016.4 -0.6 78
2019-11-05 16:00:00 23.4 56 Nordeste 74 Nordeste 0 1016.3 -1.6 70
2019-11-05 15:00:00 24 53 Nordeste 72 Nordeste 0 1016.9 -1.7 65
2019-11-05 14:00:00 24.3 51 Nordeste 80 Nordeste 0 1017 -2.3 64
2019-11-05 13:00:00 24.2 51 Nordeste 78 Nordeste 0 1017.9 -1.7 67
2019-11-05 12:00:00 24.4 49 Nordeste 68 Nordeste 0 1018.6 -0.5 65
2019-11-05 11:00:00 24 46 Nordeste 61 Nordeste 0 1019.3 0.6 69
2019-11-05 10:00:00 23.6 38 Norte 48 Nordeste 0 1019.6 1.3 69
2019-11-05 09:00:00 23.5 37 Norte 48 Norte 0 1019.1 0.8 66
2019-11-05 08:00:00 22.4 33 Norte 48 Norte 0 1018.7 0.3 71
2019-11-05 07:00:00 22.5 39 Norte 50 Norte 0 1018.3 0 70
2019-11-05 06:00:00 22.2 28 Norte 39 Nordeste 0 1018.3 -0.4 74
2019-11-05 05:00:00 22.4 32 Nordeste 45 Nordeste 0 1018.4 -0.7 70
2019-11-05 04:00:00 22.8 30 Nordeste 45 Norte 0 1018.3 -1.3 66
2019-11-05 03:00:00 22.1 21 Norte 45 Norte 0 1018.7 -1.3 74
2019-11-05 02:00:00 22.5 33 Norte 50 Nordeste 0 1019.1 -0.7 74
2019-11-05 01:00:00 22.7 35 Norte 50 Norte 0 1019.6 -0.1 68
2019-11-05 00:00:00 23 32 Norte 58 Nordeste 0 1020 0.7 63
2019-11-04 23:00:00 22.3 44 Nordeste 59 Nordeste 0 1019.8 1.1 81
2019-11-04 22:00:00 22.4 44 Norte 58 Norte 0 1019.7 1.9 75
2019-11-04 21:00:00 22.4 46 Nordeste 59 Norte 0 1019.3 1.6 73
2019-11-04 20:00:00 22.1 29 Norte 42 Norte 0 1018.7 0.8 71
2019-11-04 19:00:00 22.1 26 Norte 46 Norte 0 1017.8 0 75
2019-11-04 18:00:00 22.3 30 Norte 48 Norte 0 1017.7 -0.4 75
2019-11-04 17:00:00 22.5 29 Norte 41 Norte 0 1017.9 -0.5 76
2019-11-04 16:00:00 23.1 29 Norte 35 Nordeste 0 1017.8 -1.2 74
2019-11-04 15:00:00 23.8 23 Norte 32 Norte 0 1018.1 -1.4 70
2019-11-04 14:00:00 24 21 Norte 30 Norte 0 1018.4 -1.3 69
2019-11-04 13:00:00 24.4 20 Norte 28 Norte 0 1019 -0.4 67
2019-11-04 12:00:00 24.4 22 Norte 30 Norte 0 1019.5 0.5 67
2019-11-04 11:00:00 23.6 25 Nordeste 33 Nordeste 0 1019.7 1.3 69
2019-11-04 10:00:00 23.3 27 Norte 35 Norte 0 1019.4 1.5 71
2019-11-04 09:00:00 22.7 26 Norte 32 Norte 0 1019 1.5 74
2019-11-04 08:00:00 21.2 15 Norte 32 Noroeste 0 1018.4 0.9 76
2019-11-04 07:00:00 21.2 13 Norte 30 Nordeste 0 1017.9 0.4 73
2019-11-04 06:00:00 21.3 16 Norte 32 Norte 0 1017.5 0 71
2019-11-04 05:00:00 21.1 13 Norte 26 Norte 0 1017.5 -0.1 78
2019-11-04 04:00:00 21.3 10 Norte 32 Norte 0 1017.5 -0.6 73
2019-11-04 03:00:00 21.4 21 Norte 32 Norte 0 1017.5 -0.9 78
2019-11-04 02:00:00 21.5 16 Norte 28 Nordeste 0 1017.6 -0.9 76
2019-11-04 01:00:00 21.6 17 Norte 37 Norte 0 1018.1 -0.4 80
2019-11-04 00:00:00 21.7 22 Norte 37 Nordeste 0 1018.4 0 81
2019-11-03 23:00:00 21.8 14 Norte 35 Norte 0 1018.5 0.4 81
2019-11-03 22:00:00 21.9 18 Norte 37 Nordeste 0 1018.5 0.8 82
2019-11-03 21:00:00 22.2 24 Norte 37 Nordeste 0 1018.4 0.8 84
2019-11-03 20:00:00 22.4 28 Norte 35 Nordeste 0 1018.1 0.6 86
2019-11-03 19:00:00 22.4 28 Norte 39 Norte 0 1017.7 0.4 86
2019-11-03 18:00:00 22.8 22 Norte 32 Norte 0 1017.6 0.2 83
2019-11-03 17:00:00 23.1 23 Norte 33 Nordeste 0 1017.5 -0.4 80
2019-11-03 16:00:00 23.2 25 Nordeste 35 Nordeste 0 1017.3 -1.2 82
2019-11-03 15:00:00 23.5 25 Norte 33 Nordeste 0 1017.4 -1.5 82
2019-11-03 14:00:00 23.8 27 Norte 37 Nordeste 0 1017.9 -1.2 81
2019-11-03 13:00:00 24 26 Norte 33 Nordeste 0 1018.5 -0.2 78
2019-11-03 12:00:00 24.3 20 Norte 30 Norte 0 1018.9 0.6 77
2019-11-03 11:00:00 24.5 20 Norte 28 Norte 0 1019.1 1.3 78
2019-11-03 10:00:00 23.9 21 Norte 30 Norte 0 1018.7 1.3 80
2019-11-03 09:00:00 23.1 18 Norte 24 Norte 0 1018.3 1.2 84
2019-11-03 08:00:00 21.7 13 Norte 22 Norte 0 1017.8 0.9 85
2019-11-03 07:00:00 21.2 10 Noroeste 21 Norte 0 1017.4 0.1 86
2019-11-03 06:00:00 21.4 13 Noroeste 21 Noroeste 0 1017.1 0 88
2019-11-03 05:00:00 21.2 6 Oeste 24 Norte 0 1016.9 -0.2 87
2019-11-03 04:00:00 21.8 13 Noroeste 26 Noroeste 0 1017.3 -0.2 89
2019-11-03 03:00:00 21.7 12 Noroeste 21 Noroeste 0 1017.1 -0.7 89
2019-11-03 02:00:00 20.7 9 Noroeste 21 Nordeste 0 1017.1 -0.8 85
2019-11-03 01:00:00 22.1 12 Norte 28 Norte 0 1017.5 -0.4 90
2019-11-03 00:00:00 22.1 15 Noroeste 28 Norte 0 1017.8 0.2 86
2019-11-02 23:00:00 22.2 15 Norte 28 Norte 0 1017.9 0.7 90
2019-11-02 22:00:00 22.3 9 Norte 28 Norte 0 1017.9 1.7 89
2019-11-02 21:00:00 22.4 15 Norte 37 Norte 0 1017.6 1.8 90
2019-11-02 20:00:00 22.6 22 Norte 30 Norte 0 1017.2 1.4 89
2019-11-02 19:00:00 22.8 17 Norte 35 Noroeste 0 1016.2 0.3 88
2019-11-02 18:00:00 24.9 12 Norte 24 Norte 0 1015.8 -0.3 68
2019-11-02 17:00:00 25.6 12 Norte 24 Norte 0 1015.8 -0.8 61
2019-11-02 16:00:00 28.2 13 Norte 22 Noroeste 0 1015.9 -1.3 39
2019-11-02 15:00:00 27.1 15 Norte 24 Norte 0 1016.1 -1.8 56
2019-11-02 14:00:00 25.3 15 Norte 32 Norte 0 1016.6 -1.6 73
2019-11-02 13:00:00 25 21 Norte 28 Norte 0 1017.2 -1.1 75
2019-11-02 12:00:00 24.8 18 Norte 28 Norte 0 1017.9 0 75
2019-11-02 11:00:00 24.4 19 Norte 30 Norte 0 1018.2 0.3 77
2019-11-02 10:00:00 24.4 16 Norte 22 Norte 0 1018.3 0.5 75
2019-11-02 09:00:00 23.2 15 Norte 26 Noroeste 0 1017.9 0 75
2019-11-02 08:00:00 22 17 Noroeste 24 Noroeste 0 1017.9 0.2 76
2019-11-02 07:00:00 21.8 14 Noroeste 26 Norte 0 1017.8 -0.3 77
2019-11-02 06:00:00 22.1 18 Norte 33 Noroeste 0 1017.9 -0.3 82
2019-11-02 05:00:00 22.1 10 Noroeste 22 Norte 0 1017.7 -0.9 76
2019-11-02 04:00:00 22 14 Noroeste 26 Norte 0 1018.1 -0.9 80
2019-11-02 03:00:00 22 16 Noroeste 24 Noroeste 0 1018.2 -1.3 79
2019-11-02 02:00:00 22.3 19 Norte 28 Norte 0 1018.6 -1.3 82
2019-11-02 01:00:00 22.2 22 Norte 32 Norte 0 1019 -0.9 84
2019-11-02 00:00:00 22.4 13 Norte 26 Noroeste 0 1019.5 -0.4 80
2019-11-01 23:00:00 22.2 18 Noroeste 30 Noroeste 0 1019.9 0.3 82
2019-11-01 22:00:00 22.3 18 Norte 32 Norte 0 1019.9 0.8 83
2019-11-01 21:00:00 22.5 21 Norte 35 Norte 0 1019.9 0.6 84
2019-11-01 20:00:00 22.5 18 Noroeste 30 Norte 0 1019.6 0.6 85
2019-11-01 19:00:00 22.9 21 Norte 26 Nordeste 0 1019.1 -0.1 82
2019-11-01 18:00:00 23.2 18 Norte 32 Norte 0 1019.3 -0.3 79
2019-11-01 17:00:00 24.4 15 Noroeste 30 Norte 0 1019 -1 70
2019-11-01 16:00:00 24.1 23 Norte 41 Nordeste 0 1019.2 -1.6 73
2019-11-01 15:00:00 25 17 Norte 32 Norte 0 1019.6 -2.1 69
2019-11-01 14:00:00 25.6 18 Norte 30 Norte 0 1020 -2.1 68
2019-11-01 13:00:00 25.5 21 Norte 30 Norte 0 1020.8 -1.6 69
2019-11-01 12:00:00 25.3 22 Norte 33 Norte 0 1021.7 -0.8 69
2019-11-01 11:00:00 25 21 Norte 33 Norte 0 1022.1 0.2 68
2019-11-01 10:00:00 24.3 21 Norte 30 Norte 0 1022.4 1.2 73
2019-11-01 09:00:00 23.3 18 Norte 42 Norte 0 1022.5 1.6 73
2019-11-01 08:00:00 22.9 28 Norte 37 Norte 0 1021.9 1.1 80
2019-11-01 07:00:00 22.5 15 Noroeste 41 Norte 0 1021.2 0.6 76
2019-11-01 06:00:00 23.1 24 Norte 41 Norte 0 1020.9 0.3 73
2019-11-01 05:00:00 22.5 20 Norte 30 Noroeste 0 1020.8 -0.3 78
2019-11-01 04:00:00 22.5 14 Noroeste 28 Noroeste 0 1020.6 -1.1 74
2019-11-01 03:00:00 22.6 22 Norte 39 Norte 0 1020.6 -1.5 82
2019-11-01 02:00:00 22.7 15 Noroeste 30 Norte 0 1021.1 -1.2 73
2019-11-01 01:00:00 22.9 19 Norte 39 Norte 0 1021.7 -0.5 77
2019-11-01 00:00:00 22.7 28 Norte 37 Norte 0 1022.1 0.5 82
2019-10-31 23:00:00 22.8 25 Norte 45 Norte 0 1022.3 0.9 78
2019-10-31 22:00:00 22.7 32 Norte 41 Nordeste 0 1022.2 1.5 81
2019-10-31 21:00:00 22.9 24 Norte 39 Norte 0 1021.6 1.2 82
2019-10-31 20:00:00 23.2 28 Norte 46 Norte 0 1021.4 1.3 77
2019-10-31 19:00:00 23 33 Norte 45 Nordeste 0 1020.7 0.4 86
2019-10-31 18:00:00 23.4 23 Norte 39 Norte 0 1020.4 0 80
2019-10-31 17:00:00 23.8 27 Norte 33 Norte 0 1020.1 -0.4 81
2019-10-31 16:00:00 25 23 Norte 35 Norte 0 1020.3 -0.9 72
2019-10-31 15:00:00 25.4 26 Norte 37 Norte 0 1020.4 -1.3 71
2019-10-31 14:00:00 25.5 15 Norte 24 Norte 0 1020.5 -1.8 72
2019-10-31 13:00:00 25.4 16 Norte 32 Norte 0 1021.2 -1 71
2019-10-31 12:00:00 25.2 15 Norte 28 Noroeste 0 1021.7 0.4 73
2019-10-31 11:00:00 25.1 16 Norte 26 Norte 0 1022.3 1.7 75
2019-10-31 10:00:00 24.3 13 Norte 30 Norte 0 1022.2 2.3 80
2019-10-31 09:00:00 23.9 13 Norte 22 Norte 0 1021.3 1.6 81
2019-10-31 08:00:00 22.5 14 Noroeste 21 Norte 0 1020.6 1.2 81
2019-10-31 07:00:00 21.6 8 Noroeste 21 Norte 0 1019.9 0.4 84
2019-10-31 06:00:00 22.4 13 Noroeste 24 Norte 0 1019.7 0.4 79
2019-10-31 05:00:00 23.3 11 Noroeste 17 Norte 0 1019.4 -0.3 62
2019-10-31 04:00:00 22.9 10 Norte 21 Norte 0 1019.5 -0.5 67
2019-10-31 03:00:00 23.4 10 Norte 17 Norte 0 1019.3 -0.9 64
2019-10-31 02:00:00 22.5 12 Noroeste 18 Norte 0 1019.7 -0.4 82
2019-10-31 01:00:00 22.8 12 Noroeste 21 Norte 0 1020 0 83
2019-10-31 00:00:00 23 18 Norte 28 Norte 0 1020.2 0.7 86
2019-10-30 23:00:00 23.1 21 Norte 30 Norte 0 1020.1 1.5 88
2019-10-30 22:00:00 23.1 20 Norte 26 Norte 0 1020 2 89
2019-10-30 21:00:00 23.1 20 Norte 28 Norte 0 1019.5 1.6 90
2019-10-30 20:00:00 23.2 20 Norte 26 Norte 0 1018.6 1.1 90
2019-10-30 19:00:00 23.4 20 Norte 26 Norte 0 1018 0.8 91
2019-10-30 18:00:00 23.7 17 Norte 22 Norte 0 1017.9 0.9 90
2019-10-30 17:00:00 24.2 15 Norte 18 Norte 0 1017.5 0.4 87
2019-10-30 16:00:00 25.1 13 Norte 18 Norte 0 1017.2 -0.7 82
2019-10-30 15:00:00 25.3 15 Norte 21 Norte 0 1017 -1.2 83
2019-10-30 14:00:00 25.6 16 Norte 21 Norte 0 1017.1 -1.4 82
2019-10-30 13:00:00 25.6 13 Norte 17 Norte 0 1017.9 0 81
2019-10-30 12:00:00 24.9 14 Norte 17 Norte 0 1018.2 0.9 83
2019-10-30 11:00:00 24.9 10 Norte 15 Norte 0 1018.5 1.9 83
2019-10-30 10:00:00 25 10 Norte 15 Norte 0 1017.9 2 77
2019-10-30 09:00:00 24.4 8 Norte 13 Norte 0 1017.3 1.9 71
2019-10-30 08:00:00 21.7 5 Noroeste 8 Noroeste 0 1016.6 1.7 75
2019-10-30 07:00:00 20.9 5 Oeste 8 Oeste 0 1015.9 1.2 78
2019-10-30 06:00:00 20.8 4 Oeste 11 Sudoeste 0 1015.4 0.7 78
2019-10-30 05:00:00 21.1 9 Sudoeste 11 Sudoeste 0 1014.9 -0.1 82
2019-10-30 04:00:00 21 8 Sudoeste 11 Sudoeste 0 1014.7 -0.5 86
2019-10-30 03:00:00 21.2 9 Sudoeste 11 Sudoeste 0 1014.7 -0.8 85
2019-10-30 02:00:00 21.6 8 Sudoeste 13 Sudoeste 0 1015 -0.5 83
2019-10-30 01:00:00 21.5 10 Sudoeste 13 Sudoeste 0 1015.2 0 84
2019-10-30 00:00:00 21.7 9 Sudoeste 11 Sudoeste 0 1015.5 0.7 86
2019-10-29 23:00:00 21.9 8 Sudoeste 11 Sudoeste 0 1015.5 1.4 90
2019-10-29 22:00:00 21.9 8 Sur 9 Sur 0 1015.2 1.6 85
2019-10-29 21:00:00 22.4 5 Sudoeste 9 Oeste 0 1014.8 1.9 84
2019-10-29 20:00:00 23.3 5 Noroeste 8 Oeste 0 1014.1 1.5 83
2019-10-29 19:00:00 23.6 6 Sudeste 13 Norte 0 1013.6 1.4 87
2019-10-29 18:00:00 24.2 6 Norte 17 Sudeste 0 1012.9 0.9 83
2019-10-29 17:00:00 24.9 9 Sudeste 26 Sudeste 0 1012.6 0.5 78
2019-10-29 16:00:00 25.3 17 Sudeste 30 Sudeste 0 1012.2 -0.3 75
2019-10-29 15:00:00 25.7 20 Sudeste 30 Sudeste 0 1012 -1 74
2019-10-29 14:00:00 26.1 19 Sudeste 32 Sur 0 1012.1 -1.2 70
2019-10-29 13:00:00 25.6 21 Sudeste 33 Sur 0 1012.5 -0.8 73
2019-10-29 12:00:00 25.8 23 Sudeste 41 Sur 0 1013 0 70
2019-10-29 11:00:00 25.3 26 Sur 35 Sur 0 1013.3 1.2 70
2019-10-29 10:00:00 25.5 19 Sudeste 28 Sur 0 1013.3 2 70
2019-10-29 09:00:00 24.8 2 Norte 8 Norte 0 1013 2.2 64
2019-10-29 08:00:00 22.2 4 Oeste 13 Oeste 0 1012.1 1.3 70
2019-10-29 07:00:00 21.6 8 Oeste 13 Oeste 0 1011.3 0.6 69
2019-10-29 06:00:00 22.5 9 Noroeste 13 Noroeste 0 1010.8 -0.1 66
2019-10-29 05:00:00 22.1 5 Oeste 9 Oeste 0 1010.8 -0.4 67
2019-10-29 04:00:00 22.3 6 Noroeste 11 Norte 0 1010.7 -1 66
2019-10-29 03:00:00 22.5 5 Noroeste 9 Noroeste 0 1010.9 -1.1 69
2019-10-29 02:00:00 22.7 5 Norte 11 Sudoeste 0 1011.2 -1.1 75
2019-10-29 01:00:00 21.9 5 Oeste 9 Oeste 0 1011.7 -0.7 84
2019-10-29 00:00:00 22.5 6 Noroeste 13 Norte 0 1012 -0.1 75
2019-10-28 23:00:00 23.9 9 Noroeste 13 Noroeste 0 1012.3 0.6 71
2019-10-28 22:00:00 24.1 5 Oeste 11 Oeste 0 1012.4 1 63
2019-10-28 21:00:00 24.3 7 Oeste 17 Norte 0 1012.1 1 64
2019-10-28 20:00:00 24.5 9 Noroeste 17 Este 0 1011.7 0.2 68
2019-10-28 19:00:00 25.3 9 Norte 22 Sudeste 0 1011.4 -0.3 67
2019-10-28 18:00:00 26.2 15 Sur 26 Sur 0 1011.1 -0.6 59
2019-10-28 17:00:00 25.8 17 Sudeste 32 Sudeste 0 1011.5 -0.9 65
2019-10-28 16:00:00 27.4 23 Sudeste 33 Sudeste 0 1011.7 -1.6 55
2019-10-28 15:00:00 25.5 6 Este 11 Nordeste 0 1011.7 -2.4 76
2019-10-28 14:00:00 24.9 7 Este 13 Este 0 1012.4 -1.8 79
2019-10-28 13:00:00 24.8 10 Sudeste 13 Sudeste 0 1013.3 -0.8 85
2019-10-28 12:00:00 24.4 9 Este 11 Este 0 1014.1 0.4 88
2019-10-28 11:00:00 23.9 5 Nordeste 8 Este 0 1014.2 1.6 89
2019-10-28 10:00:00 23.8 7 Norte 11 Nordeste 0 1014.1 2 89
2019-10-28 09:00:00 23.4 7 Norte 15 Norte 0 1013.7 2 90
2019-10-28 08:00:00 21.8 5 Norte 9 Norte 0 1012.6 1 77
2019-10-28 07:00:00 22.2 3 Oeste 11 Noroeste 0 1012.1 0.3 75
2019-10-28 06:00:00 21.9 9 Oeste 11 Oeste 0 1011.7 -0.6 77
2019-10-28 05:00:00 21.8 5 Oeste 9 Oeste 0 1011.6 -1.2 78
2019-10-28 04:00:00 21.5 5 Oeste 9 Oeste 0 1011.8 -1.5 85
2019-10-28 03:00:00 21.6 5 Oeste 9 Oeste 0 1012.3 -1.3 85
2019-10-28 02:00:00 22 6 Oeste 11 Oeste 0 1012.8 -1.3 82
2019-10-28 01:00:00 22.1 6 Oeste 13 Norte 0 1013.3 -0.9 94
2019-10-28 00:00:00 22.5 6 Norte 22 Norte 0 1013.6 0.1 94
2019-10-27 23:00:00 22.6 14 Nordeste 22 Nordeste 0 1014.1 0.8 93
2019-10-27 22:00:00 22.7 15 Nordeste 24 Nordeste 0 1014.2 1.7 92
2019-10-27 21:00:00 22.5 3 Oeste 30 Nordeste 0 1013.5 0.9 91
2019-10-27 20:00:00 22.8 17 Norte 28 Nordeste 0 1013.3 1.5 93
2019-10-27 19:00:00 23.5 10 Norte 26 Nordeste 0 1012.5 1 87
2019-10-27 18:00:00 24.8 13 Norte 33 Norte 0 1012.6 0.6 81
2019-10-27 17:00:00 27.6 18 Sur 33 Sur 0 1011.8 -2 58
2019-10-27 16:00:00 28.3 23 Sudeste 33 Sudeste 0 1011.5 -3.3 54
2019-10-27 15:00:00 25.1 9 Este 13 Este 0 1012 -3 83
2019-10-27 14:00:00 24.8 4 Este 11 Este 0 1013.8 -0.6 81
2019-10-27 13:00:00 24.5 5 Este 15 Nordeste 0 1014.8 0.5 83
2019-10-27 12:00:00 25.5 5 Nordeste 18 Sudeste 0 1015 0.6 74
2019-10-27 11:00:00 25.5 11 Sudeste 21 Sudeste 0 1014.4 0.9 78
2019-10-27 10:00:00 24.8 8 Sudeste 24 Sudoeste 0 1014.3 2.2 81
2019-10-27 09:00:00 23.4 10 Sudoeste 15 Sudoeste 0 1014.4 2.8 84
2019-10-27 08:00:00 23.2 7 Norte 11 Norte 0 1013.5 1.9 82
2019-10-27 07:00:00 22.4 5 Sur 13 Oeste 0 1012.1 0.1 81
2019-10-27 06:00:00 22.9 9 Sudoeste 17 Sudoeste 0 1011.6 -0.7 80
2019-10-27 05:00:00 22.3 8 Sur 11 Sur 0 1011.6 -1.5 84
2019-10-27 04:00:00 22.7 5 Noroeste 13 Oeste 0 1012 -2 84
2019-10-27 03:00:00 23.2 5 Este 11 Oeste 0 1012.3 -0.9 85
2019-10-27 02:00:00 22.4 7 Sudoeste 18 Noroeste 0 1013.1 -0.9 85
2019-10-27 01:00:00 22.6 10 Noroeste 18 Noroeste 0 1014 0.3 83
2019-10-27 00:00:00 22.5 11 Sur 15 Sur 0 1014 0.8 84
2019-10-26 23:00:00 21.4 3 Oeste -- -- 0 1013.7 1 91
2019-10-26 22:00:00 21.3 6 Oeste 8 Oeste 0 1013.6 1.1 91
2019-10-26 21:00:00 21.2 7 Oeste 9 Oeste 0 1013.2 0.8 92
2019-10-26 20:00:00 21.6 3 Oeste 26 Noroeste 0 1012.7 0.5 92
2019-10-26 19:00:00 21.7 14 Noroeste 24 Noroeste 3.6 1012.5 0.6 91
2019-10-26 18:00:00 22.2 18 Norte 26 Norte 6.4 1012.4 -0.7 86
2019-10-26 17:00:00 23.6 12 Sur 35 Sudeste 0 1012.2 -1.1 76
2019-10-26 16:00:00 24.9 23 Sur 48 Sur 0 1011.9 -2.2 64
2019-10-26 15:00:00 24.5 35 Sur 48 Sur 0 1013.1 -0.3 58
2019-10-26 14:00:00 24 24 Sur 46 Sur 0 1013.3 0.4 65
2019-10-26 13:00:00 24.2 27 Sudeste 48 Sudeste 0 1014.1 1.2 66
2019-10-26 12:00:00 23.2 24 Sudeste 33 Sudeste 0 1013.4 1.2 80
2019-10-26 11:00:00 22.7 7 Sudeste 21 Sur 0 1012.9 0.9 81
2019-10-26 10:00:00 19.9 14 Sur 26 Sur 0.5 1012.9 0.8 91
2019-10-26 09:00:00 19.2 17 Sur 22 Sur 1.6 1012.2 0.4 92
2019-10-26 08:00:00 19.8 21 Este 35 Sur 2.3 1012 0.7 90
2019-10-26 07:00:00 20 15 Sudeste 28 Sudeste 3.5 1012.1 0.1 90
2019-10-26 06:00:00 19.9 11 Sudoeste 15 Sur 0.1 1011.8 0.4 89
2019-10-26 05:00:00 20.2 6 Oeste 30 Sur 0 1011.3 -0.8 85
2019-10-26 04:00:00 20.1 18 Sur 32 Sur 2.5 1012 -0.7 88
2019-10-26 03:00:00 20.1 7 Oeste 13 Oeste 0 1011.4 -1.4 76
2019-10-26 02:00:00 19.9 9 Oeste 11 Oeste 0 1012.1 -0.6 79
2019-10-26 01:00:00 19.9 9 Oeste 15 Oeste 0 1012.7 0.5 79
2019-10-26 00:00:00 19.7 10 Oeste 11 Oeste 0 1012.8 1.1 78
2019-10-25 23:00:00 19.9 8 Oeste 11 Oeste 0 1012.7 1.6 80
2019-10-25 22:00:00 20.2 9 Oeste 13 Oeste 0 1012.2 1.4 82
2019-10-25 21:00:00 20.1 8 Oeste 11 Oeste 0 1011.7 1.1 82
2019-10-25 20:00:00 21.2 3 Noroeste 8 Norte 0 1011.1 0.8 78
2019-10-25 19:00:00 21.7 4 Norte 8 Norte 0 1010.8 0.3 76
2019-10-25 18:00:00 21.9 4 Este 11 Este 0 1010.6 -0.3 74
2019-10-25 17:00:00 21.9 5 Este 9 Este 0 1010.3 -0.9 73
2019-10-25 16:00:00 21.8 4 Este 8 Este 0 1010.5 -1.3 73
2019-10-25 15:00:00 21.9 3 Nordeste 9 Este 0 1010.9 -1 71
2019-10-25 14:00:00 22.1 5 Nordeste 8 Nordeste 0 1011.2 -1 69
2019-10-25 13:00:00 21.9 4 Norte 8 Nordeste 0 1011.8 0.1 68
2019-10-25 12:00:00 21.4 3 Nordeste 9 Norte 0 1011.9 0.5 68
2019-10-25 11:00:00 21.2 3 Norte 24 Oeste 0 1012.2 1.4 67
2019-10-25 10:00:00 19.3 4 Oeste 13 Oeste 0 1011.7 1.3 70
2019-10-25 09:00:00 18.2 11 Oeste 17 Oeste 0 1011.4 1.4 71
2019-10-25 08:00:00 17.3 11 Oeste 13 Oeste 0 1010.8 0.6 67
2019-10-25 07:00:00 17.1 9 Oeste 13 Sudoeste 0 1010.4 -0.3 70
2019-10-25 06:00:00 17.2 8 Oeste 13 Oeste 0 1010 -1.3 67
2019-10-25 05:00:00 18.4 12 Oeste 13 Oeste 0 1010.2 -1.8 66
2019-10-25 04:00:00 17.7 9 Oeste 15 Oeste 0 1010.7 -1.7 67
2019-10-25 03:00:00 18.4 12 Sudoeste 17 Sudoeste 0 1011.3 -1.3 67
2019-10-25 02:00:00 18.4 9 Oeste 17 Oeste 0 1012 -0.3 67
2019-10-25 01:00:00 18.6 14 Sudoeste 17 Sudoeste 0 1012.4 0.6 68
2019-10-25 00:00:00 18.6 12 Oeste 15 Oeste 0 1012.6 1.3 70
2019-10-24 23:00:00 18.8 11 Oeste 15 Oeste 0 1012.3 1.2 68
2019-10-24 22:00:00 18.8 9 Oeste 35 Oeste 0 1011.8 0.9 68
2019-10-24 21:00:00 19.2 8 Sudoeste 26 Oeste 0 1011.3 0.3 68
2019-10-24 20:00:00 20 11 Oeste 15 Oeste 0 1011.1 0.1 69
2019-10-24 19:00:00 21.6 5 Norte 15 Norte 0 1010.9 -0.3 63
2019-10-24 18:00:00 21.9 3 Norte 11 Norte 0 1011 -0.8 61
2019-10-24 17:00:00 22.4 6 Norte 17 Oeste 0 1011 -1.4 60
2019-10-24 16:00:00 22 6 Nordeste 17 Nordeste 0 1011.2 -2 63
2019-10-24 15:00:00 22.4 10 Nordeste 15 Nordeste 0 1011.8 -1.7 64
2019-10-24 14:00:00 23.1 12 Nordeste 18 Norte 0 1012.4 -1.1 57
2019-10-24 13:00:00 23.4 5 Nordeste 15 Nordeste 0 1013.2 -0.1 54
2019-10-24 12:00:00 23.2 9 Nordeste 13 Nordeste 0 1013.5 0.9 58
2019-10-24 11:00:00 22.5 3 Nordeste 13 Norte 0 1013.5 1.3 57
2019-10-24 10:00:00 20.8 4 Noroeste 11 Oeste 0 1013.3 1.1 56
2019-10-24 09:00:00 19.5 10 Oeste 18 Oeste 0 1012.6 0.4 61
2019-10-24 08:00:00 19.1 12 Oeste 15 Oeste 0 1012.2 -0.3 66
2019-10-24 07:00:00 20.8 8 Nordeste 24 Este 0 1012.2 -0.3 60
2019-10-24 06:00:00 20.9 14 Nordeste 22 Este 0 1012.2 -0.7 65
2019-10-24 05:00:00 20.9 12 Nordeste 21 Oeste 0 1012.5 -0.7 66
2019-10-24 04:00:00 19.8 11 Oeste 21 Oeste 0 1012.5 -1.1 67
2019-10-24 03:00:00 19.7 13 Oeste 21 Oeste 0 1012.9 -1 66
2019-10-24 02:00:00 19.9 13 Oeste 21 Oeste 0 1013.2 -0.7 64
2019-10-24 01:00:00 19.4 13 Oeste 18 Oeste 0 1013.6 0.2 69
2019-10-24 00:00:00 20 8 Noroeste 15 Oeste 0 1013.9 1.1 67
2019-10-23 23:00:00 20.7 10 Oeste 21 Oeste 0 1013.9 1.6 64
2019-10-23 22:00:00 20.2 13 Oeste 28 Oeste 0 1013.4 1.2 68
2019-10-23 21:00:00 20.3 21 Norte 28 Norte 0 1012.8 0.4 72
2019-10-23 20:00:00 20.9 9 Noroeste 17 Oeste 0 1012.3 -0.1 65
2019-10-23 19:00:00 21.5 9 Norte 22 Oeste 0 1012.2 -0.5 64
2019-10-23 18:00:00 21.5 12 Oeste 45 Oeste 0 1012.4 -0.4 61
2019-10-23 17:00:00 20.9 17 Oeste 26 Oeste 0 1012.4 -0.9 66
2019-10-23 16:00:00 20.4 13 Oeste 24 Norte 0 1012.7 -1.3 72
2019-10-23 15:00:00 21 4 Noroeste 30 Norte 0.2 1012.8 -1.6 68
2019-10-23 14:00:00 23 8 Nordeste 15 Norte 0 1013.3 -1.1 57
2019-10-23 13:00:00 23.4 9 Norte 21 Nordeste 0 1014 0 53
2019-10-23 12:00:00 22.9 13 Nordeste 22 Nordeste 0 1014.4 1.2 58
2019-10-23 11:00:00 22.1 12 Noroeste 28 Noroeste 0 1014.4 1.7 55
2019-10-23 10:00:00 21.1 10 Noroeste 17 Oeste 0 1014 1.1 57
2019-10-23 09:00:00 19.3 12 Oeste 21 Oeste 0 1013.2 0.3 63
2019-10-23 08:00:00 19.7 17 Oeste 26 Noroeste 0 1012.7 -0.4 59
2019-10-23 07:00:00 19.4 14 Noroeste 22 Noroeste 0 1012.9 -0.4 64
2019-10-23 06:00:00 19 12 Oeste 17 Oeste 0 1012.9 -0.7 63
2019-10-23 05:00:00 19.6 13 Oeste 21 Oeste 0 1013.1 -1 54
2019-10-23 04:00:00 19 14 Oeste 18 Oeste 0 1013.3 -1.1 57
2019-10-23 03:00:00 19.1 13 Oeste 24 Noroeste 0 1013.6 -1.1 63
2019-10-23 02:00:00 20.4 15 Noroeste 21 Noroeste 0 1014.1 -0.8 59
2019-10-23 01:00:00 20.6 13 Noroeste 22 Norte 0 1014.4 -0.4 55
2019-10-23 00:00:00 20.6 14 Noroeste 21 Noroeste 0 1014.7 0.5 56
2019-10-22 23:00:00 20.6 12 Noroeste 21 Noroeste 0 1014.9 1.2 57
2019-10-22 22:00:00 20.2 10 Noroeste 22 Noroeste 0 1014.8 1.4 57
2019-10-22 21:00:00 21 14 Noroeste 26 Noroeste 0 1014.2 0.7 57
2019-10-22 20:00:00 21.2 18 Norte 37 Noroeste 0 1013.7 0 54
2019-10-22 19:00:00 21.5 19 Norte 30 Norte 0 1013.4 -0.7 56
2019-10-22 18:00:00 21.6 20 Norte 33 Norte 0 1013.5 -0.9 60
2019-10-22 17:00:00 21.8 26 Norte 37 Norte 0 1013.7 -1.4 55
2019-10-22 16:00:00 22.3 18 Norte 45 Norte 0 1014.1 -1.4 59
2019-10-22 15:00:00 22.3 28 Norte 45 Norte 0 1014.4 -1.4 66
2019-10-22 14:00:00 22.3 24 Nordeste 32 Nordeste 0 1015.1 -0.6 63
2019-10-22 13:00:00 22.4 23 Nordeste 35 Nordeste 0 1015.5 0 61
2019-10-22 12:00:00 23.4 25 Norte 35 Nordeste 0 1015.8 0.8 48
2019-10-22 11:00:00 22.6 22 Norte 33 Norte 0 1015.7 1.1 46
2019-10-22 10:00:00 22.3 23 Norte 32 Nordeste 0 1015.5 1.1 42
2019-10-22 09:00:00 19.8 16 Noroeste 28 Norte 0 1015 0.7 50
2019-10-22 08:00:00 19.9 19 Noroeste 32 Noroeste 0 1014.6 0.4 51
2019-10-22 07:00:00 20.2 19 Noroeste 30 Noroeste 0 1014.4 -0.1 58
2019-10-22 06:00:00 20.1 16 Noroeste 26 Noroeste 0 1014.3 -0.6 58
2019-10-22 05:00:00 19.8 15 Noroeste 28 Noroeste 0 1014.2 -1 64
2019-10-22 04:00:00 19.3 12 Noroeste 45 Nordeste 0 1014.5 -1.3 68
2019-10-22 03:00:00 19.4 13 Noroeste 21 Noroeste 0 1014.9 -1 56
2019-10-22 02:00:00 19.3 15 Oeste 22 Noroeste 0 1015.2 -0.8 57
2019-10-22 01:00:00 19.9 17 Noroeste 30 Noroeste 0 1015.8 0.2 60
2019-10-22 00:00:00 19.8 16 Noroeste 26 Noroeste 0 1015.9 0.6 58